createdAt,value
2019-02-20T00:00:09.231Z,3.50
2019-02-20T00:02:41.480Z,3.77
2019-02-20T00:05:13.700Z,3.85
2019-02-20T00:07:45.929Z,4.10
2019-02-20T00:10:18.188Z,4.05
2019-02-20T00:12:50.487Z,3.77
2019-02-20T00:15:22.778Z,4.12
2019-02-20T00:17:55.030Z,4.00
2019-02-20T00:20:28.677Z,4.03
2019-02-20T00:23:00.901Z,4.53
2019-02-20T00:25:33.142Z,4.22
2019-02-20T00:28:05.375Z,4.95
2019-02-20T00:30:37.629Z,4.20
2019-02-20T00:33:09.865Z,4.85
2019-02-20T00:35:42.108Z,4.17
2019-02-20T00:38:14.375Z,4.83
2019-02-20T00:40:46.707Z,5.00
2019-02-20T00:43:18.943Z,4.80
2019-02-20T00:45:56.664Z,3.92
2019-02-20T00:48:45.644Z,4.95
2019-02-20T00:51:19.523Z,4.00
2019-02-20T00:53:53.391Z,3.98
2019-02-20T00:56:25.636Z,4.70
2019-02-20T00:58:57.876Z,5.10
2019-02-20T01:01:30.115Z,5.70
2019-02-20T01:04:02.419Z,5.10
2019-02-20T01:06:34.732Z,5.03
2019-02-20T01:09:07.134Z,3.92
2019-02-20T01:11:39.367Z,4.87
2019-02-20T01:14:11.596Z,4.87
2019-02-20T01:16:43.863Z,3.83
2019-02-20T01:19:16.174Z,4.10
2019-02-20T01:21:48.415Z,4.25
2019-02-20T01:24:20.665Z,3.40
2019-02-20T01:26:52.995Z,3.60
2019-02-20T01:29:25.216Z,4.03
2019-02-20T01:31:57.483Z,4.63
2019-02-20T01:34:29.715Z,4.28
2019-02-20T01:37:01.984Z,4.22
2019-02-20T01:39:34.201Z,4.35
2019-02-20T01:42:06.482Z,4.70
2019-02-20T01:44:38.706Z,6.22
2019-02-20T01:47:11.129Z,4.92
2019-02-20T01:49:43.383Z,4.30
2019-02-20T01:52:15.631Z,3.67
2019-02-20T01:54:47.852Z,3.85
2019-02-20T01:57:20.089Z,3.37
2019-02-20T01:59:52.311Z,3.67
2019-02-20T02:02:24.626Z,3.55
2019-02-20T02:04:56.856Z,4.22
2019-02-20T02:07:29.096Z,3.60
2019-02-20T02:10:01.331Z,4.55
2019-02-20T02:12:33.601Z,4.17
2019-02-20T02:15:07.187Z,3.90
2019-02-20T02:17:39.424Z,3.98
2019-02-20T02:20:11.661Z,4.35
2019-02-20T02:22:43.901Z,4.20
2019-02-20T02:25:16.128Z,4.35
2019-02-20T02:27:48.612Z,3.70
2019-02-20T02:30:20.843Z,3.70
2019-02-20T02:32:53.084Z,4.40
2019-02-20T02:35:25.323Z,3.83
2019-02-20T02:37:57.567Z,4.47
2019-02-20T02:40:29.828Z,4.42
2019-02-20T02:43:02.131Z,4.72
2019-02-20T02:45:34.364Z,4.17
2019-02-20T02:48:06.610Z,4.10
2019-02-20T02:50:38.826Z,4.67
2019-02-20T02:53:11.077Z,3.55
2019-02-20T02:55:43.301Z,3.92
2019-02-20T02:58:15.555Z,5.08
2019-02-20T03:00:47.782Z,3.83
2019-02-20T03:03:20.043Z,3.65
2019-02-20T03:05:52.266Z,6.00
2019-02-20T03:08:24.564Z,6.45
2019-02-20T03:10:56.839Z,5.78
2019-02-20T03:13:29.102Z,4.62
2019-02-20T03:16:01.335Z,4.50
2019-02-20T03:18:33.583Z,4.67
2019-02-20T03:21:05.809Z,4.03
2019-02-20T03:23:40.108Z,4.72
2019-02-20T03:26:12.026Z,4.22
2019-02-20T03:28:44.266Z,4.62
2019-02-20T03:31:16.506Z,5.42
2019-02-20T03:33:48.764Z,5.10
2019-02-20T03:36:21.054Z,4.62
2019-02-20T03:38:53.305Z,4.33
2019-02-20T03:41:25.527Z,4.67
2019-02-20T03:43:57.773Z,4.87
2019-02-20T03:46:30.000Z,5.05
2019-02-20T03:49:02.256Z,4.83
2019-02-20T03:51:34.495Z,4.28
2019-02-20T03:54:06.912Z,4.72
2019-02-20T03:56:39.187Z,5.35
2019-02-20T03:59:11.507Z,4.40
2019-02-20T04:01:43.757Z,5.58
2019-02-20T04:04:16.007Z,3.45
2019-02-20T04:06:48.245Z,4.42
2019-02-20T04:09:20.485Z,5.30
2019-02-20T04:11:52.721Z,4.50
2019-02-20T04:14:24.980Z,4.78
2019-02-20T04:16:57.211Z,5.05
2019-02-20T04:19:29.459Z,5.60
2019-02-20T04:22:01.866Z,4.20
2019-02-20T04:24:34.091Z,4.10
2019-02-20T04:27:06.415Z,4.62
2019-02-20T04:29:38.723Z,4.15
2019-02-20T04:32:10.979Z,5.00
2019-02-20T04:34:43.227Z,5.33
2019-02-20T04:37:15.792Z,4.83
2019-02-20T04:39:48.060Z,4.75
2019-02-20T04:42:20.290Z,4.80
2019-02-20T04:44:52.523Z,4.45
2019-02-20T04:47:24.994Z,5.15
2019-02-20T04:49:57.251Z,5.37
2019-02-20T04:52:29.485Z,4.85
2019-02-20T04:55:01.732Z,4.33
2019-02-20T04:57:33.966Z,3.62
2019-02-20T05:00:07.756Z,4.40
2019-02-20T05:02:39.982Z,4.62
2019-02-20T05:05:12.231Z,3.83
2019-02-20T05:07:44.465Z,4.62
2019-02-20T05:10:16.715Z,4.78
2019-02-20T05:12:48.944Z,4.65
2019-02-20T05:15:21.205Z,5.05
2019-02-20T05:17:53.447Z,4.92
2019-02-20T05:20:25.678Z,4.60
2019-02-20T05:22:57.937Z,4.35
2019-02-20T05:25:30.186Z,5.15
2019-02-20T05:28:02.461Z,4.67
2019-02-20T05:30:34.729Z,5.87
2019-02-20T05:33:06.955Z,5.30
2019-02-20T05:35:39.187Z,5.15
2019-02-20T05:38:11.420Z,4.78
2019-02-20T05:40:43.672Z,4.53
2019-02-20T05:43:15.909Z,4.28
2019-02-20T05:45:48.159Z,5.10
2019-02-20T05:48:20.384Z,4.83
2019-02-20T05:50:52.628Z,4.95
2019-02-20T05:53:24.865Z,4.35
2019-02-20T05:55:57.101Z,4.85
2019-02-20T05:58:29.329Z,4.62
2019-02-20T06:01:01.576Z,4.40
2019-02-20T06:03:33.830Z,4.70
2019-02-20T06:06:06.100Z,5.03
2019-02-20T06:08:38.327Z,4.65
2019-02-20T06:11:14.788Z,5.95
2019-02-20T06:13:44.527Z,5.17
2019-02-20T06:16:16.767Z,5.33
2019-02-20T06:18:48.996Z,5.67
2019-02-20T06:21:21.236Z,4.37
2019-02-20T06:23:53.481Z,4.90
2019-02-20T06:26:25.725Z,4.90
2019-02-20T06:28:57.982Z,5.60
2019-02-20T06:31:30.268Z,6.12
2019-02-20T06:34:02.495Z,6.53
2019-02-20T06:36:34.763Z,6.10
2019-02-20T06:39:06.991Z,6.03
2019-02-20T06:41:39.614Z,5.15
2019-02-20T06:44:11.980Z,7.15
2019-02-20T06:46:44.304Z,7.00
2019-02-20T06:49:16.663Z,6.72
2019-02-20T06:51:48.907Z,6.40
2019-02-20T06:54:21.146Z,6.40
2019-02-20T06:56:53.374Z,6.85
2019-02-20T06:59:25.602Z,5.00
2019-02-20T07:01:57.847Z,6.47
2019-02-20T07:04:30.091Z,6.55
2019-02-20T07:07:06.866Z,5.97
2019-02-20T07:09:46.713Z,7.37
2019-02-20T07:12:21.367Z,7.10
2019-02-20T07:14:55.148Z,6.50
2019-02-20T07:17:28.967Z,6.97
2019-02-20T07:20:03.970Z,6.92
2019-02-20T07:22:37.740Z,8.08
2019-02-20T07:25:14.186Z,6.78
2019-02-20T07:27:49.208Z,7.75
2019-02-20T07:30:21.481Z,6.45
2019-02-20T07:32:53.976Z,7.40
2019-02-20T07:35:26.212Z,7.05
2019-02-20T07:37:58.487Z,7.50
2019-02-20T07:40:30.806Z,7.65
2019-02-20T07:43:03.031Z,7.83
2019-02-20T07:45:35.306Z,6.37
2019-02-20T07:48:07.554Z,7.05
2019-02-20T07:50:40.735Z,7.75
2019-02-20T07:53:13.194Z,8.00
2019-02-20T07:55:45.805Z,8.28
2019-02-20T07:58:18.914Z,7.70
2019-02-20T08:00:51.116Z,7.53
2019-02-20T08:03:23.377Z,7.25
2019-02-20T08:05:55.613Z,7.55
2019-02-20T08:08:27.881Z,8.10
2019-02-20T08:11:00.110Z,7.87
2019-02-20T08:13:39.045Z,7.58
2019-02-20T08:16:06.322Z,9.30
2019-02-20T08:18:38.541Z,7.58
2019-02-20T08:21:10.773Z,8.25
2019-02-20T08:23:43.021Z,9.43
2019-02-20T08:26:15.260Z,9.83
2019-02-20T08:28:47.517Z,9.00
2019-02-20T08:31:19.762Z,9.25
2019-02-20T08:33:52.097Z,9.53
2019-02-20T08:36:24.329Z,9.40
2019-02-20T08:38:56.791Z,9.90
2019-02-20T08:41:29.023Z,9.85
2019-02-20T08:44:01.260Z,10.18
2019-02-20T08:46:33.499Z,9.78
2019-02-20T08:49:05.719Z,10.80
2019-02-20T08:51:38.046Z,9.05
2019-02-20T08:54:10.289Z,10.05
2019-02-20T08:56:42.515Z,9.55
2019-02-20T08:59:14.772Z,9.40
2019-02-20T09:01:47.030Z,10.43
2019-02-20T09:04:19.293Z,10.60
2019-02-20T09:06:51.535Z,10.75
2019-02-20T09:09:23.789Z,10.53
2019-02-20T09:11:56.033Z,11.18
2019-02-20T09:14:28.298Z,11.38
2019-02-20T09:17:00.546Z,10.38
2019-02-20T09:19:32.782Z,10.45
2019-02-20T09:22:05.011Z,11.28
2019-02-20T09:24:37.295Z,11.25
2019-02-20T09:27:09.659Z,11.30
2019-02-20T09:29:41.932Z,11.78
2019-02-20T09:32:14.180Z,13.28
2019-02-20T09:34:46.470Z,11.10
2019-02-20T09:37:18.705Z,11.03
2019-02-20T09:39:50.968Z,10.55
2019-02-20T09:42:23.319Z,11.57
2019-02-20T09:44:55.518Z,8.80
2019-02-20T09:47:27.751Z,11.30
2019-02-20T09:50:00.025Z,12.05
2019-02-20T09:52:32.248Z,9.20
2019-02-20T09:55:05.828Z,10.45
2019-02-20T09:57:38.079Z,11.30
2019-02-20T10:00:14.426Z,10.78
2019-02-20T10:02:47.410Z,11.97
2019-02-20T10:05:19.784Z,11.53
2019-02-20T10:07:52.037Z,10.32
2019-02-20T10:10:24.303Z,10.18
2019-02-20T10:12:56.539Z,10.25
2019-02-20T10:15:28.791Z,11.30
2019-02-20T10:18:01.032Z,11.48
2019-02-20T10:20:33.308Z,10.72
2019-02-20T10:23:05.544Z,11.00
2019-02-20T10:25:37.848Z,10.13
2019-02-20T10:28:10.093Z,11.65
2019-02-20T10:30:42.371Z,10.80
2019-02-20T10:33:14.599Z,11.05
2019-02-20T10:35:46.867Z,10.60
2019-02-20T10:38:19.103Z,10.72
2019-02-20T10:40:51.421Z,10.90
2019-02-20T10:43:23.658Z,9.70
2019-02-20T10:45:55.952Z,10.48
2019-02-20T10:48:28.204Z,10.55
2019-02-20T10:51:00.476Z,9.65
2019-02-20T10:53:32.727Z,10.30
2019-02-20T10:56:09.402Z,13.35
2019-02-20T10:58:38.961Z,12.70
2019-02-20T11:01:11.276Z,14.03
2019-02-20T11:03:43.508Z,13.25
2019-02-20T11:06:15.771Z,12.30
2019-02-20T11:08:48.008Z,11.80
2019-02-20T11:11:20.268Z,12.95
2019-02-20T11:13:52.523Z,12.20
2019-02-20T11:16:24.795Z,11.65
2019-02-20T11:18:57.018Z,11.80
2019-02-20T11:21:29.302Z,11.83
2019-02-20T11:24:01.535Z,10.85
2019-02-20T11:26:43.291Z,10.30
2019-02-20T11:29:07.791Z,11.43
2019-02-20T11:31:40.092Z,10.20
2019-02-20T11:34:12.398Z,10.85
2019-02-20T11:36:44.651Z,10.28
2019-02-20T11:39:16.895Z,10.82
2019-02-20T11:41:49.172Z,10.68
2019-02-20T11:44:21.428Z,10.43
2019-02-20T11:46:53.665Z,9.80
2019-02-20T11:49:25.902Z,10.35
2019-02-20T11:51:58.206Z,10.08
2019-02-20T11:54:30.437Z,10.40
2019-02-20T11:57:02.711Z,7.50
2019-02-20T11:59:35.120Z,8.28
2019-02-20T12:02:07.377Z,8.43
2019-02-20T12:04:39.714Z,8.48
2019-02-20T12:07:12.019Z,8.45
2019-02-20T12:09:45.382Z,7.62
2019-02-20T12:12:17.696Z,7.42
2019-02-20T12:14:49.927Z,7.53
2019-02-20T12:17:22.183Z,7.53
2019-02-20T12:19:54.412Z,7.12
2019-02-20T12:22:26.663Z,7.50
2019-02-20T12:24:59.367Z,7.45
2019-02-20T12:27:33.095Z,8.60
2019-02-20T12:30:07.011Z,8.30
2019-02-20T12:32:39.345Z,8.20
2019-02-20T12:35:11.569Z,7.08
2019-02-20T12:37:43.824Z,7.10
2019-02-20T12:40:16.040Z,7.80
2019-02-20T12:42:48.302Z,7.65
2019-02-20T12:45:20.539Z,7.17
2019-02-20T12:47:52.787Z,6.42
2019-02-20T12:50:25.025Z,6.72
2019-02-20T12:52:57.380Z,7.78
2019-02-20T12:55:29.609Z,7.85
2019-02-20T12:58:01.871Z,5.92
2019-02-20T13:00:34.131Z,7.72
2019-02-20T13:03:06.374Z,7.58
2019-02-20T13:05:38.599Z,7.70
2019-02-20T13:08:10.859Z,8.33
2019-02-20T13:10:43.174Z,8.08
2019-02-20T13:13:15.702Z,4.83
2019-02-20T13:15:47.927Z,5.45
2019-02-20T13:18:20.203Z,5.70
2019-02-20T13:20:52.572Z,3.98
2019-02-20T13:23:24.862Z,3.58
2019-02-20T13:25:57.108Z,3.50
2019-02-20T13:28:29.442Z,3.90
2019-02-20T13:31:01.916Z,3.67
2019-02-20T13:33:34.288Z,4.25
2019-02-20T13:36:06.531Z,3.70
2019-02-20T13:38:38.777Z,2.77
2019-02-20T13:41:12.571Z,3.33
2019-02-20T13:43:44.872Z,3.08
2019-02-20T13:46:17.119Z,2.90
2019-02-20T13:48:49.448Z,3.90
2019-02-20T13:51:21.669Z,3.02
2019-02-20T13:53:54.284Z,4.17
2019-02-20T13:56:26.577Z,4.45
2019-02-20T13:58:58.832Z,4.30
2019-02-20T14:01:31.140Z,4.70
2019-02-20T14:04:03.386Z,4.00
2019-02-20T14:06:35.947Z,4.85
2019-02-20T14:09:08.259Z,3.47
2019-02-20T14:11:40.500Z,3.50
2019-02-20T14:14:12.770Z,3.72
2019-02-20T14:16:45.027Z,3.10
2019-02-20T14:19:17.559Z,4.25
2019-02-20T14:21:49.788Z,3.75
2019-02-20T14:24:22.030Z,3.25
2019-02-20T14:26:54.260Z,2.58
2019-02-20T14:29:26.515Z,3.72
2019-02-20T14:31:59.040Z,4.00
2019-02-20T14:34:31.336Z,3.85
2019-02-20T14:37:03.573Z,3.58
2019-02-20T14:39:35.820Z,3.27
2019-02-20T14:42:08.154Z,3.20
2019-02-20T14:44:40.672Z,4.15
2019-02-20T14:47:12.903Z,3.90
2019-02-20T14:49:45.150Z,3.05
2019-02-20T14:52:18.635Z,3.50
2019-02-20T14:54:50.929Z,3.98
2019-02-20T14:57:23.157Z,3.37
2019-02-20T14:59:55.404Z,3.77
2019-02-20T15:02:27.707Z,4.20
2019-02-20T15:05:00.028Z,4.05
2019-02-20T15:07:33.843Z,3.77
2019-02-20T15:10:07.730Z,4.83
2019-02-20T15:12:40.081Z,4.00
2019-02-20T15:15:12.681Z,4.72
2019-02-20T15:17:44.900Z,4.30
2019-02-20T15:20:17.331Z,4.35
2019-02-20T15:22:49.552Z,5.00
2019-02-20T15:25:21.804Z,5.22
2019-02-20T15:27:54.065Z,4.42
2019-02-20T15:30:26.342Z,4.80
2019-02-20T15:32:58.936Z,4.72
2019-02-20T15:35:31.265Z,4.97
2019-02-20T15:38:05.166Z,4.15
2019-02-20T15:40:37.782Z,3.52
2019-02-20T15:43:10.021Z,4.62
2019-02-20T15:45:42.615Z,4.15
2019-02-20T15:48:22.881Z,5.05
2019-02-20T15:50:48.849Z,5.30
2019-02-20T15:53:21.091Z,5.60
2019-02-20T15:55:54.251Z,6.22
2019-02-20T15:58:27.311Z,5.67
2019-02-20T16:00:59.619Z,5.40
2019-02-20T16:03:31.915Z,5.15
2019-02-20T16:06:04.260Z,5.55
2019-02-20T16:08:36.508Z,4.67
2019-02-20T16:11:08.771Z,5.10
2019-02-20T16:13:40.997Z,5.20
2019-02-20T16:16:24.977Z,5.10
2019-02-20T16:18:57.268Z,5.45
2019-02-20T16:21:29.836Z,5.33
2019-02-20T16:24:02.144Z,6.75
2019-02-20T16:26:34.412Z,5.83
2019-02-20T16:29:06.727Z,5.40
2019-02-20T16:31:39.001Z,5.55
2019-02-20T16:34:11.213Z,5.15
2019-02-20T16:36:43.481Z,5.60
2019-02-20T16:39:15.729Z,5.28
2019-02-20T16:41:48.003Z,5.40
2019-02-20T16:44:20.232Z,6.17
2019-02-20T16:46:52.476Z,5.70
2019-02-20T16:49:24.698Z,5.58
2019-02-20T16:51:56.941Z,5.22
2019-02-20T16:54:29.164Z,5.92
2019-02-20T16:57:01.432Z,5.60
2019-02-20T16:59:33.681Z,5.08
2019-02-20T17:02:07.486Z,5.58
2019-02-20T17:04:39.707Z,5.17
2019-02-20T17:07:11.995Z,4.75
2019-02-20T17:09:44.207Z,5.45
2019-02-20T17:12:16.473Z,4.95
2019-02-20T17:14:48.707Z,5.20
2019-02-20T17:17:21.063Z,5.12
2019-02-20T17:19:53.290Z,4.90
2019-02-20T17:22:26.087Z,4.00
2019-02-20T17:24:58.304Z,4.20
2019-02-20T17:27:30.556Z,4.03
2019-02-20T17:30:02.835Z,3.52
2019-02-20T17:32:35.153Z,4.55
2019-02-20T17:35:09.012Z,4.70
2019-02-20T17:37:46.173Z,4.03
2019-02-20T17:40:18.459Z,4.30
2019-02-20T17:42:50.700Z,5.70
2019-02-20T17:45:22.943Z,5.12
2019-02-20T17:47:55.220Z,4.83
2019-02-20T17:50:27.539Z,3.90
2019-02-20T17:52:59.868Z,3.55
2019-02-20T17:55:32.101Z,3.50
2019-02-20T17:58:04.472Z,3.47
2019-02-20T18:00:36.996Z,3.52
2019-02-20T18:03:09.579Z,3.17
2019-02-20T18:05:41.870Z,3.22
2019-02-20T18:08:14.105Z,3.10
2019-02-20T18:10:46.793Z,3.84
2019-02-20T18:13:19.724Z,4.03
2019-02-20T18:15:52.071Z,4.87
2019-02-20T18:18:24.280Z,4.60
2019-02-20T18:20:56.551Z,4.45
2019-02-20T18:23:28.811Z,4.37
2019-02-20T18:26:01.060Z,4.50
2019-02-20T18:28:33.286Z,3.77
2019-02-20T18:31:05.550Z,3.55
2019-02-20T18:33:37.832Z,3.60
2019-02-20T18:36:11.633Z,3.75
2019-02-20T18:38:44.044Z,3.45
2019-02-20T18:41:16.273Z,3.33
2019-02-20T18:43:48.504Z,4.30
2019-02-20T18:46:20.739Z,4.03
2019-02-20T18:48:53.006Z,4.30
2019-02-20T18:51:25.232Z,4.15
2019-02-20T18:53:57.455Z,3.70
2019-02-20T18:56:29.719Z,3.92
2019-02-20T18:59:02.017Z,3.87
2019-02-20T19:01:34.266Z,3.98
2019-02-20T19:04:08.102Z,4.00
2019-02-20T19:06:40.474Z,4.42
2019-02-20T19:09:14.475Z,4.75
2019-02-20T19:11:51.277Z,4.45
2019-02-20T19:14:25.369Z,4.45
2019-02-20T19:16:59.114Z,4.45
2019-02-20T19:19:32.947Z,5.55
2019-02-20T19:22:23.247Z,6.50
2019-02-20T19:25:09.132Z,6.80
2019-02-20T19:27:45.645Z,6.33
2019-02-20T19:30:19.406Z,6.33
2019-02-20T19:32:55.929Z,5.95
2019-02-20T19:35:29.712Z,6.40
2019-02-20T19:38:09.124Z,6.30
2019-02-20T19:40:53.952Z,5.90
2019-02-20T19:43:34.483Z,4.70
2019-02-20T19:46:24.755Z,4.97
2019-02-20T19:48:58.578Z,5.23
2019-02-20T19:51:38.477Z,4.92
2019-02-20T19:54:17.989Z,4.95
2019-02-20T19:57:08.519Z,5.00
2019-02-20T19:59:44.736Z,4.47
2019-02-20T20:02:28.428Z,4.75
2019-02-20T20:05:11.143Z,5.47
2019-02-20T20:08:03.305Z,5.08
2019-02-20T20:10:37.203Z,5.00
2019-02-20T20:13:13.653Z,5.37
2019-02-20T20:15:47.499Z,5.22
2019-02-20T20:18:21.432Z,5.25
2019-02-20T20:20:55.231Z,5.15
2019-02-20T20:23:45.734Z,5.90
2019-02-20T20:26:34.700Z,5.90
2019-02-20T20:29:08.524Z,6.67
2019-02-20T20:31:48.111Z,5.75
2019-02-20T20:34:22.072Z,6.12
2019-02-20T20:37:01.662Z,6.25
2019-02-20T20:39:36.494Z,6.87
2019-02-20T20:42:16.390Z,7.50
2019-02-20T20:44:56.448Z,7.93
2019-02-20T20:47:46.771Z,7.00
2019-02-20T20:50:32.415Z,7.37
2019-02-20T20:53:11.907Z,7.70
2019-02-20T20:55:48.669Z,7.78
2019-02-20T20:58:31.610Z,6.62
2019-02-20T21:01:05.395Z,8.10
2019-02-20T21:03:55.707Z,6.80
2019-02-20T21:06:35.251Z,7.37
2019-02-20T21:09:11.936Z,6.85
2019-02-20T21:12:00.589Z,6.87
2019-02-20T21:14:40.084Z,7.03
2019-02-20T21:17:15.900Z,7.03
2019-02-20T21:19:49.354Z,6.92
2019-02-20T21:22:25.856Z,7.05
2019-02-20T21:25:11.438Z,6.55
2019-02-20T21:27:54.265Z,7.20
2019-02-20T21:30:33.985Z,6.35
2019-02-20T21:33:16.700Z,6.77
2019-02-20T21:35:53.305Z,6.67
2019-02-20T21:38:30.029Z,6.40
2019-02-20T21:41:06.496Z,6.65
2019-02-20T21:43:46.344Z,6.65
2019-02-20T21:46:22.887Z,6.90
2019-02-20T21:48:59.323Z,7.47
2019-02-20T21:51:33.105Z,6.70
2019-02-20T21:54:12.956Z,7.03
2019-02-20T21:56:46.839Z,7.17
2019-02-20T21:59:26.682Z,6.53
2019-02-20T22:02:06.160Z,6.75
2019-02-20T22:04:52.016Z,7.28
2019-02-20T22:07:34.649Z,6.78
2019-02-20T22:10:20.392Z,6.75
2019-02-20T22:13:03.173Z,7.37
2019-02-20T22:15:39.669Z,8.00
2019-02-20T22:18:28.524Z,8.13
2019-02-20T22:21:20.155Z,7.75
2019-02-20T22:23:54.173Z,8.38
2019-02-20T22:26:27.953Z,7.60
2019-02-20T22:29:10.581Z,8.03
2019-02-20T22:31:56.184Z,7.40
2019-02-20T22:34:30.008Z,8.28
2019-02-20T22:37:09.559Z,8.20
2019-02-20T22:39:49.078Z,8.45
2019-02-20T22:42:22.929Z,7.47
2019-02-20T22:44:59.469Z,7.93
2019-02-20T22:47:36.193Z,8.08
2019-02-20T22:50:15.964Z,7.97
2019-02-20T22:52:55.386Z,8.10
2019-02-20T22:55:31.876Z,8.10
2019-02-20T22:58:23.845Z,7.97
2019-02-20T23:01:00.550Z,7.55
2019-02-20T23:03:34.367Z,7.80
2019-02-20T23:06:16.989Z,7.28
2019-02-20T23:08:56.651Z,7.22
2019-02-20T23:11:30.433Z,6.92
2019-02-20T23:14:04.221Z,7.20
2019-02-20T23:16:36.473Z,6.53
2019-02-20T23:19:08.959Z,7.08
2019-02-20T23:21:41.193Z,6.72
2019-02-20T23:24:13.431Z,6.62
2019-02-20T23:26:45.711Z,6.62
2019-02-20T23:29:17.916Z,7.10
2019-02-20T23:31:50.169Z,6.65
2019-02-20T23:34:22.415Z,6.83
2019-02-20T23:36:54.667Z,6.65
2019-02-20T23:39:26.926Z,6.50
2019-02-20T23:41:59.180Z,6.95
2019-02-20T23:44:31.491Z,7.50
2019-02-20T23:47:03.791Z,7.22
2019-02-20T23:49:36.046Z,6.28
2019-02-20T23:52:08.302Z,7.17
2019-02-20T23:54:40.533Z,7.20
2019-02-20T23:57:12.792Z,6.65
2019-02-20T23:59:45.038Z,6.58
